Terminal Aerodrome Forecast
Issued by NWS

Home | Current Version | Previous Version | Text Only | Print | Product List | Glossary On
Versions: 1 2 3 4 5 6 7 8 9 10 11 12 13 14 15 16 17 18 19 20
000
FTUS41 KPHI 302200 AAA
TAFMIV
TAF AMD
KMIV 302240Z 3023/0118 10010KT P6SM BKN025
     FM010400 04004KT 6SM BR BKN012
     FM010800 02006KT 4SM BR BKN006
     FM011400 03008KT P6SM BKN010=

USA.gov is the U.S. government's official web portal to all federal, state and local government web resources and services.